sensor_id;sensor_type;location;lat;lon;timestamp;P1;durP1;ratioP1;P2;durP2;ratioP2
14001;SDS011;7076;51.280;12.584;2023-03-01T00:03:29;11.33;;;6.53;;
14001;SDS011;7076;51.280;12.584;2023-03-01T00:08:34;6.13;;;4.37;;
14001;SDS011;7076;51.280;12.584;2023-03-01T00:13:37;9.60;;;5.70;;
14001;SDS011;7076;51.280;12.584;2023-03-01T00:18:40;11.23;;;6.80;;
14001;SDS011;7076;51.280;12.584;2023-03-01T00:23:44;8.80;;;5.00;;
14001;SDS011;7076;51.280;12.584;2023-03-01T00:28:50;7.97;;;5.17;;
14001;SDS011;7076;51.280;12.584;2023-03-01T00:33:53;9.27;;;4.80;;
14001;SDS011;7076;51.280;12.584;2023-03-01T00:38:59;10.13;;;6.50;;
14001;SDS011;7076;51.280;12.584;2023-03-01T00:44:02;5.07;;;3.63;;
14001;SDS011;7076;51.280;12.584;2023-03-01T00:49:05;7.53;;;4.20;;
14001;SDS011;7076;51.280;12.584;2023-03-01T00:54:09;8.13;;;5.07;;
14001;SDS011;7076;51.280;12.584;2023-03-01T00:59:12;8.10;;;4.90;;
14001;SDS011;7076;51.280;12.584;2023-03-01T01:04:15;9.57;;;5.27;;
14001;SDS011;7076;51.280;12.584;2023-03-01T01:09:19;9.63;;;5.97;;
14001;SDS011;7076;51.280;12.584;2023-03-01T01:14:22;7.53;;;5.40;;
14001;SDS011;7076;51.280;12.584;2023-03-01T01:19:25;8.73;;;5.43;;
14001;SDS011;7076;51.280;12.584;2023-03-01T01:24:30;9.50;;;5.17;;
14001;SDS011;7076;51.280;12.584;2023-03-01T01:29:33;7.50;;;4.77;;
14001;SDS011;7076;51.280;12.584;2023-03-01T01:34:36;7.10;;;4.63;;
14001;SDS011;7076;51.280;12.584;2023-03-01T01:39:40;5.93;;;4.10;;
14001;SDS011;7076;51.280;12.584;2023-03-01T01:44:44;6.13;;;4.33;;
14001;SDS011;7076;51.280;12.584;2023-03-01T01:49:48;6.30;;;4.20;;
14001;SDS011;7076;51.280;12.584;2023-03-01T01:54:56;7.77;;;4.30;;
14001;SDS011;7076;51.280;12.584;2023-03-01T02:00:02;6.63;;;4.87;;
14001;SDS011;7076;51.280;12.584;2023-03-01T02:05:15;7.20;;;4.57;;
14001;SDS011;7076;51.280;12.584;2023-03-01T02:10:26;5.57;;;4.30;;
14001;SDS011;7076;51.280;12.584;2023-03-01T02:15:31;6.90;;;4.63;;
14001;SDS011;7076;51.280;12.584;2023-03-01T02:20:35;6.33;;;4.53;;
14001;SDS011;7076;51.280;12.584;2023-03-01T02:25:46;5.20;;;3.00;;
14001;SDS011;7076;51.280;12.584;2023-03-01T02:30:52;8.93;;;5.83;;
14001;SDS011;7076;51.280;12.584;2023-03-01T02:36:14;7.47;;;4.70;;
14001;SDS011;7076;51.280;12.584;2023-03-01T02:41:24;6.40;;;4.17;;
14001;SDS011;7076;51.280;12.584;2023-03-01T02:46:30;6.80;;;5.07;;
14001;SDS011;7076;51.280;12.584;2023-03-01T02:51:38;4.57;;;3.07;;
14001;SDS011;7076;51.280;12.584;2023-03-01T02:56:47;7.63;;;4.47;;
14001;SDS011;7076;51.280;12.584;2023-03-01T03:01:54;8.40;;;4.83;;
14001;SDS011;7076;51.280;12.584;2023-03-01T03:06:58;8.07;;;5.03;;
14001;SDS011;7076;51.280;12.584;2023-03-01T03:12:01;8.73;;;3.77;;
14001;SDS011;7076;51.280;12.584;2023-03-01T03:17:05;8.03;;;4.93;;
14001;SDS011;7076;51.280;12.584;2023-03-01T03:22:08;7.93;;;4.07;;
14001;SDS011;7076;51.280;12.584;2023-03-01T03:27:11;6.03;;;3.40;;
14001;SDS011;7076;51.280;12.584;2023-03-01T03:32:15;5.83;;;3.77;;
14001;SDS011;7076;51.280;12.584;2023-03-01T03:37:18;6.97;;;4.77;;
14001;SDS011;7076;51.280;12.584;2023-03-01T03:42:34;4.83;;;3.37;;
14001;SDS011;7076;51.280;12.584;2023-03-01T03:47:38;7.83;;;5.37;;
14001;SDS011;7076;51.280;12.584;2023-03-01T03:52:41;6.53;;;4.17;;
14001;SDS011;7076;51.280;12.584;2023-03-01T03:57:45;11.07;;;5.60;;
14001;SDS011;7076;51.280;12.584;2023-03-01T04:02:53;8.33;;;5.27;;
14001;SDS011;7076;51.280;12.584;2023-03-01T04:07:57;6.70;;;3.60;;
14001;SDS011;7076;51.280;12.584;2023-03-01T04:13:04;11.77;;;5.20;;
14001;SDS011;7076;51.280;12.584;2023-03-01T04:18:08;9.63;;;5.63;;
14001;SDS011;7076;51.280;12.584;2023-03-01T04:23:12;9.70;;;4.27;;
14001;SDS011;7076;51.280;12.584;2023-03-01T04:28:17;8.10;;;4.80;;
14001;SDS011;7076;51.280;12.584;2023-03-01T04:33:21;7.43;;;3.83;;
14001;SDS011;7076;51.280;12.584;2023-03-01T04:38:24;7.10;;;5.10;;
14001;SDS011;7076;51.280;12.584;2023-03-01T04:43:27;9.60;;;5.97;;
14001;SDS011;7076;51.280;12.584;2023-03-01T04:48:31;6.83;;;4.30;;
14001;SDS011;7076;51.280;12.584;2023-03-01T04:53:34;9.80;;;4.50;;
14001;SDS011;7076;51.280;12.584;2023-03-01T04:58:38;7.40;;;4.83;;
14001;SDS011;7076;51.280;12.584;2023-03-01T05:03:43;11.07;;;5.90;;
14001;SDS011;7076;51.280;12.584;2023-03-01T05:08:46;9.17;;;5.13;;
14001;SDS011;7076;51.280;12.584;2023-03-01T05:13:49;7.00;;;4.07;;
14001;SDS011;7076;51.280;12.584;2023-03-01T05:18:57;9.00;;;4.67;;
14001;SDS011;7076;51.280;12.584;2023-03-01T05:24:00;8.93;;;4.47;;
14001;SDS011;7076;51.280;12.584;2023-03-01T05:29:03;6.10;;;4.47;;
14001;SDS011;7076;51.280;12.584;2023-03-01T05:34:08;7.43;;;4.23;;
14001;SDS011;7076;51.280;12.584;2023-03-01T05:39:10;7.30;;;4.07;;
14001;SDS011;7076;51.280;12.584;2023-03-01T05:44:13;6.73;;;4.63;;
14001;SDS011;7076;51.280;12.584;2023-03-01T05:49:17;7.47;;;4.90;;
14001;SDS011;7076;51.280;12.584;2023-03-01T05:54:20;5.83;;;3.30;;
14001;SDS011;7076;51.280;12.584;2023-03-01T05:59:23;6.00;;;4.57;;
14001;SDS011;7076;51.280;12.584;2023-03-01T06:04:27;5.33;;;3.33;;
14001;SDS011;7076;51.280;12.584;2023-03-01T06:09:30;8.77;;;4.87;;
14001;SDS011;7076;51.280;12.584;2023-03-01T06:14:33;9.37;;;5.30;;
14001;SDS011;7076;51.280;12.584;2023-03-01T06:19:37;12.63;;;7.87;;
14001;SDS011;7076;51.280;12.584;2023-03-01T06:24:40;15.13;;;8.07;;
14001;SDS011;7076;51.280;12.584;2023-03-01T06:29:43;10.20;;;6.83;;
14001;SDS011;7076;51.280;12.584;2023-03-01T06:34:47;8.53;;;6.20;;
14001;SDS011;7076;51.280;12.584;2023-03-01T06:39:50;7.77;;;4.73;;
14001;SDS011;7076;51.280;12.584;2023-03-01T06:44:53;6.60;;;5.30;;
14001;SDS011;7076;51.280;12.584;2023-03-01T06:49:57;7.73;;;3.80;;
14001;SDS011;7076;51.280;12.584;2023-03-01T06:55:00;6.37;;;4.60;;
14001;SDS011;7076;51.280;12.584;2023-03-01T07:00:03;6.93;;;5.07;;
14001;SDS011;7076;51.280;12.584;2023-03-01T07:05:09;8.33;;;5.90;;
14001;SDS011;7076;51.280;12.584;2023-03-01T07:10:12;10.20;;;5.40;;
14001;SDS011;7076;51.280;12.584;2023-03-01T07:15:15;7.67;;;5.03;;
14001;SDS011;7076;51.280;12.584;2023-03-01T07:20:20;5.90;;;4.50;;
14001;SDS011;7076;51.280;12.584;2023-03-01T07:25:25;6.47;;;4.47;;
14001;SDS011;7076;51.280;12.584;2023-03-01T07:30:28;8.40;;;4.70;;
14001;SDS011;7076;51.280;12.584;2023-03-01T07:35:32;6.17;;;4.40;;
14001;SDS011;7076;51.280;12.584;2023-03-01T07:40:35;7.30;;;4.87;;
14001;SDS011;7076;51.280;12.584;2023-03-01T07:45:38;11.23;;;6.93;;
14001;SDS011;7076;51.280;12.584;2023-03-01T07:50:42;8.53;;;6.20;;
14001;SDS011;7076;51.280;12.584;2023-03-01T07:55:45;11.87;;;5.80;;
14001;SDS011;7076;51.280;12.584;2023-03-01T08:00:48;11.70;;;5.37;;
14001;SDS011;7076;51.280;12.584;2023-03-01T08:05:52;10.10;;;6.07;;
14001;SDS011;7076;51.280;12.584;2023-03-01T08:10:55;8.97;;;5.27;;
14001;SDS011;7076;51.280;12.584;2023-03-01T08:16:00;12.07;;;6.20;;
14001;SDS011;7076;51.280;12.584;2023-03-01T08:21:06;9.43;;;6.47;;
14001;SDS011;7076;51.280;12.584;2023-03-01T08:26:11;9.30;;;5.73;;
14001;SDS011;7076;51.280;12.584;2023-03-01T08:31:16;10.33;;;5.13;;
14001;SDS011;7076;51.280;12.584;2023-03-01T08:36:23;11.00;;;5.20;;
14001;SDS011;7076;51.280;12.584;2023-03-01T08:41:27;12.50;;;6.93;;
14001;SDS011;7076;51.280;12.584;2023-03-01T08:46:31;9.47;;;5.30;;
14001;SDS011;7076;51.280;12.584;2023-03-01T08:51:36;14.37;;;7.13;;
14001;SDS011;7076;51.280;12.584;2023-03-01T08:56:39;12.10;;;5.90;;
14001;SDS011;7076;51.280;12.584;2023-03-01T09:01:42;11.90;;;6.90;;
14001;SDS011;7076;51.280;12.584;2023-03-01T09:06:46;9.03;;;5.97;;
14001;SDS011;7076;51.280;12.584;2023-03-01T09:11:50;9.90;;;6.90;;
14001;SDS011;7076;51.280;12.584;2023-03-01T09:16:52;14.43;;;6.67;;
14001;SDS011;7076;51.280;12.584;2023-03-01T09:21:57;9.67;;;6.13;;
14001;SDS011;7076;51.280;12.584;2023-03-01T09:26:59;11.83;;;6.47;;
14001;SDS011;7076;51.280;12.584;2023-03-01T09:32:02;11.27;;;7.03;;
14001;SDS011;7076;51.280;12.584;2023-03-01T09:37:06;12.40;;;7.63;;
14001;SDS011;7076;51.280;12.584;2023-03-01T09:42:11;10.27;;;6.57;;
14001;SDS011;7076;51.280;12.584;2023-03-01T09:47:16;9.40;;;5.27;;
14001;SDS011;7076;51.280;12.584;2023-03-01T09:52:23;13.63;;;7.60;;
14001;SDS011;7076;51.280;12.584;2023-03-01T09:57:30;11.37;;;6.13;;
14001;SDS011;7076;51.280;12.584;2023-03-01T10:02:38;10.10;;;6.43;;
14001;SDS011;7076;51.280;12.584;2023-03-01T10:07:47;11.93;;;7.20;;
14001;SDS011;7076;51.280;12.584;2023-03-01T10:12:54;11.83;;;7.47;;
14001;SDS011;7076;51.280;12.584;2023-03-01T10:17:58;12.80;;;6.97;;
14001;SDS011;7076;51.280;12.584;2023-03-01T10:23:07;10.87;;;5.40;;
14001;SDS011;7076;51.280;12.584;2023-03-01T10:28:13;13.77;;;7.53;;
14001;SDS011;7076;51.280;12.584;2023-03-01T10:33:20;12.53;;;7.80;;
14001;SDS011;7076;51.280;12.584;2023-03-01T10:38:26;10.97;;;7.23;;
14001;SDS011;7076;51.280;12.584;2023-03-01T10:43:32;10.93;;;6.23;;
14001;SDS011;7076;51.280;12.584;2023-03-01T10:48:45;5.57;;;4.07;;
14001;SDS011;7076;51.280;12.584;2023-03-01T10:53:49;10.83;;;5.47;;
14001;SDS011;7076;51.280;12.584;2023-03-01T10:58:57;11.07;;;7.20;;
14001;SDS011;7076;51.280;12.584;2023-03-01T11:04:10;7.90;;;5.27;;
14001;SDS011;7076;51.280;12.584;2023-03-01T11:09:16;8.80;;;5.13;;
14001;SDS011;7076;51.280;12.584;2023-03-01T11:14:21;12.23;;;5.90;;
14001;SDS011;7076;51.280;12.584;2023-03-01T11:19:28;10.03;;;6.43;;
14001;SDS011;7076;51.280;12.584;2023-03-01T11:24:34;6.87;;;4.67;;
14001;SDS011;7076;51.280;12.584;2023-03-01T11:29:44;8.00;;;5.60;;
14001;SDS011;7076;51.280;12.584;2023-03-01T11:34:53;7.20;;;4.60;;
14001;SDS011;7076;51.280;12.584;2023-03-01T11:40:01;10.60;;;6.47;;
14001;SDS011;7076;51.280;12.584;2023-03-01T11:45:10;10.60;;;6.47;;
14001;SDS011;7076;51.280;12.584;2023-03-01T11:50:15;10.63;;;7.67;;
14001;SDS011;7076;51.280;12.584;2023-03-01T11:55:31;10.95;;;8.18;;
14001;SDS011;7076;51.280;12.584;2023-03-01T12:00:43;11.60;;;9.50;;
14001;SDS011;7076;51.280;12.584;2023-03-01T12:06:04;9.32;;;7.32;;
14001;SDS011;7076;51.280;12.584;2023-03-01T12:11:28;9.32;;;7.90;;
14001;SDS011;7076;51.280;12.584;2023-03-01T12:16:49;9.10;;;8.10;;
14001;SDS011;7076;51.280;12.584;2023-03-01T12:22:09;9.35;;;7.65;;
14001;SDS011;7076;51.280;12.584;2023-03-01T12:27:30;6.25;;;5.63;;
14001;SDS011;7076;51.280;12.584;2023-03-01T12:32:44;7.63;;;6.20;;
14001;SDS011;7076;51.280;12.584;2023-03-01T12:37:54;8.68;;;6.32;;
14001;SDS011;7076;51.280;12.584;2023-03-01T12:43:03;6.38;;;5.15;;
14001;SDS011;7076;51.280;12.584;2023-03-01T12:48:17;6.10;;;5.30;;
14001;SDS011;7076;51.280;12.584;2023-03-01T12:53:27;5.22;;;4.60;;
14001;SDS011;7076;51.280;12.584;2023-03-01T12:58:33;6.60;;;5.90;;
14001;SDS011;7076;51.280;12.584;2023-03-01T13:03:59;7.93;;;6.30;;
14001;SDS011;7076;51.280;12.584;2023-03-01T13:09:11;6.35;;;5.05;;
14001;SDS011;7076;51.280;12.584;2023-03-01T13:14:37;7.43;;;6.47;;
14001;SDS011;7076;51.280;12.584;2023-03-01T13:19:55;6.38;;;5.68;;
14001;SDS011;7076;51.280;12.584;2023-03-01T13:25:03;7.32;;;5.78;;
14001;SDS011;7076;51.280;12.584;2023-03-01T13:35:44;7.47;;;5.72;;
14001;SDS011;7076;51.280;12.584;2023-03-01T13:40:57;6.95;;;6.00;;
14001;SDS011;7076;51.280;12.584;2023-03-01T13:46:07;8.07;;;6.35;;
14001;SDS011;7076;51.280;12.584;2023-03-01T13:51:12;8.55;;;6.03;;
14001;SDS011;7076;51.280;12.584;2023-03-01T13:56:15;7.28;;;5.57;;
14001;SDS011;7076;51.280;12.584;2023-03-01T14:01:22;8.13;;;6.78;;
14001;SDS011;7076;51.280;12.584;2023-03-01T14:06:28;7.30;;;4.45;;
14001;SDS011;7076;51.280;12.584;2023-03-01T14:11:52;8.30;;;6.15;;
14001;SDS011;7076;51.280;12.584;2023-03-01T14:22:31;8.82;;;5.32;;
14001;SDS011;7076;51.280;12.584;2023-03-01T14:27:37;8.50;;;5.43;;
14001;SDS011;7076;51.280;12.584;2023-03-01T14:32:48;7.63;;;5.15;;
14001;SDS011;7076;51.280;12.584;2023-03-01T14:37:55;6.03;;;4.28;;
14001;SDS011;7076;51.280;12.584;2023-03-01T14:42:58;8.75;;;5.05;;
14001;SDS011;7076;51.280;12.584;2023-03-01T14:48:04;6.68;;;4.07;;
14001;SDS011;7076;51.280;12.584;2023-03-01T14:53:12;7.00;;;4.50;;
14001;SDS011;7076;51.280;12.584;2023-03-01T14:58:19;5.57;;;4.05;;
14001;SDS011;7076;51.280;12.584;2023-03-01T15:03:26;8.02;;;4.03;;
14001;SDS011;7076;51.280;12.584;2023-03-01T15:08:32;5.88;;;3.95;;
14001;SDS011;7076;51.280;12.584;2023-03-01T15:13:36;7.90;;;4.63;;
14001;SDS011;7076;51.280;12.584;2023-03-01T15:18:44;8.02;;;3.95;;
14001;SDS011;7076;51.280;12.584;2023-03-01T15:23:48;5.75;;;3.95;;
14001;SDS011;7076;51.280;12.584;2023-03-01T15:28:55;7.47;;;4.85;;
14001;SDS011;7076;51.280;12.584;2023-03-01T15:34:19;7.55;;;5.30;;
14001;SDS011;7076;51.280;12.584;2023-03-01T15:44:45;7.03;;;4.40;;
14001;SDS011;7076;51.280;12.584;2023-03-01T15:49:50;8.38;;;3.97;;
14001;SDS011;7076;51.280;12.584;2023-03-01T15:54:57;6.53;;;4.57;;
14001;SDS011;7076;51.280;12.584;2023-03-01T16:00:00;8.52;;;5.57;;
14001;SDS011;7076;51.280;12.584;2023-03-01T16:05:17;8.85;;;4.63;;
14001;SDS011;7076;51.280;12.584;2023-03-01T16:10:22;7.03;;;5.00;;
14001;SDS011;7076;51.280;12.584;2023-03-01T16:15:26;6.50;;;4.15;;
14001;SDS011;7076;51.280;12.584;2023-03-01T16:20:34;5.90;;;4.18;;
14001;SDS011;7076;51.280;12.584;2023-03-01T16:25:37;6.75;;;4.38;;
14001;SDS011;7076;51.280;12.584;2023-03-01T16:30:44;5.85;;;4.80;;
14001;SDS011;7076;51.280;12.584;2023-03-01T16:35:50;5.88;;;3.78;;
14001;SDS011;7076;51.280;12.584;2023-03-01T16:40:53;6.60;;;3.90;;
14001;SDS011;7076;51.280;12.584;2023-03-01T16:45:55;8.95;;;4.25;;
14001;SDS011;7076;51.280;12.584;2023-03-01T16:51:01;8.70;;;6.43;;
14001;SDS011;7076;51.280;12.584;2023-03-01T16:56:04;8.35;;;4.20;;
14001;SDS011;7076;51.280;12.584;2023-03-01T17:01:09;7.35;;;4.88;;
14001;SDS011;7076;51.280;12.584;2023-03-01T17:06:16;9.80;;;6.13;;
14001;SDS011;7076;51.280;12.584;2023-03-01T17:11:21;9.48;;;6.68;;
14001;SDS011;7076;51.280;12.584;2023-03-01T17:16:24;10.20;;;6.57;;
14001;SDS011;7076;51.280;12.584;2023-03-01T17:21:29;13.57;;;8.05;;
14001;SDS011;7076;51.280;12.584;2023-03-01T17:26:32;10.38;;;7.32;;
14001;SDS011;7076;51.280;12.584;2023-03-01T17:31:35;11.20;;;7.18;;
14001;SDS011;7076;51.280;12.584;2023-03-01T17:36:39;11.65;;;5.85;;
14001;SDS011;7076;51.280;12.584;2023-03-01T17:41:45;8.77;;;5.07;;
14001;SDS011;7076;51.280;12.584;2023-03-01T17:46:48;9.63;;;6.53;;
14001;SDS011;7076;51.280;12.584;2023-03-01T17:51:52;6.53;;;4.18;;
14001;SDS011;7076;51.280;12.584;2023-03-01T17:56:55;7.15;;;4.78;;
14001;SDS011;7076;51.280;12.584;2023-03-01T18:01:59;6.13;;;3.77;;
14001;SDS011;7076;51.280;12.584;2023-03-01T18:07:03;12.25;;;6.32;;
14001;SDS011;7076;51.280;12.584;2023-03-01T18:12:07;9.32;;;6.20;;
14001;SDS011;7076;51.280;12.584;2023-03-01T18:17:10;11.60;;;7.38;;
14001;SDS011;7076;51.280;12.584;2023-03-01T18:22:15;7.60;;;5.05;;
14001;SDS011;7076;51.280;12.584;2023-03-01T18:27:18;9.82;;;5.80;;
14001;SDS011;7076;51.280;12.584;2023-03-01T18:32:20;11.87;;;7.67;;
14001;SDS011;7076;51.280;12.584;2023-03-01T18:37:25;9.90;;;7.07;;
14001;SDS011;7076;51.280;12.584;2023-03-01T18:42:27;8.97;;;5.93;;
14001;SDS011;7076;51.280;12.584;2023-03-01T18:47:30;6.97;;;4.85;;
14001;SDS011;7076;51.280;12.584;2023-03-01T18:52:34;8.30;;;4.73;;
14001;SDS011;7076;51.280;12.584;2023-03-01T18:57:37;10.23;;;6.43;;
14001;SDS011;7076;51.280;12.584;2023-03-01T19:02:40;9.00;;;6.07;;
14001;SDS011;7076;51.280;12.584;2023-03-01T19:07:44;6.40;;;4.17;;
14001;SDS011;7076;51.280;12.584;2023-03-01T19:12:47;7.80;;;4.50;;
14001;SDS011;7076;51.280;12.584;2023-03-01T19:17:50;7.43;;;3.90;;
14001;SDS011;7076;51.280;12.584;2023-03-01T19:22:56;6.97;;;3.87;;
14001;SDS011;7076;51.280;12.584;2023-03-01T19:27:59;6.50;;;3.90;;
14001;SDS011;7076;51.280;12.584;2023-03-01T19:33:01;7.47;;;4.00;;
14001;SDS011;7076;51.280;12.584;2023-03-01T19:38:06;5.30;;;3.97;;
14001;SDS011;7076;51.280;12.584;2023-03-01T19:43:10;5.60;;;3.73;;
14001;SDS011;7076;51.280;12.584;2023-03-01T19:48:12;4.07;;;2.77;;
14001;SDS011;7076;51.280;12.584;2023-03-01T19:53:16;3.87;;;2.30;;
14001;SDS011;7076;51.280;12.584;2023-03-01T19:58:20;4.40;;;2.73;;
14001;SDS011;7076;51.280;12.584;2023-03-01T20:03:23;7.63;;;3.67;;
14001;SDS011;7076;51.280;12.584;2023-03-01T20:08:28;3.80;;;2.60;;
14001;SDS011;7076;51.280;12.584;2023-03-01T20:13:32;5.07;;;2.50;;
14001;SDS011;7076;51.280;12.584;2023-03-01T20:18:35;4.00;;;2.40;;
14001;SDS011;7076;51.280;12.584;2023-03-01T20:23:39;5.20;;;2.60;;
14001;SDS011;7076;51.280;12.584;2023-03-01T20:28:42;4.73;;;3.03;;
14001;SDS011;7076;51.280;12.584;2023-03-01T20:33:45;6.97;;;3.70;;
14001;SDS011;7076;51.280;12.584;2023-03-01T20:38:50;5.47;;;3.37;;
14001;SDS011;7076;51.280;12.584;2023-03-01T20:43:53;5.40;;;2.50;;
14001;SDS011;7076;51.280;12.584;2023-03-01T20:48:57;6.53;;;3.27;;
14001;SDS011;7076;51.280;12.584;2023-03-01T20:54:01;5.07;;;3.10;;
14001;SDS011;7076;51.280;12.584;2023-03-01T20:59:06;5.20;;;3.43;;
14001;SDS011;7076;51.280;12.584;2023-03-01T21:04:10;4.27;;;2.83;;
14001;SDS011;7076;51.280;12.584;2023-03-01T21:09:14;3.77;;;2.40;;
14001;SDS011;7076;51.280;12.584;2023-03-01T21:14:17;4.67;;;2.63;;
14001;SDS011;7076;51.280;12.584;2023-03-01T21:19:22;8.40;;;3.50;;
14001;SDS011;7076;51.280;12.584;2023-03-01T21:24:27;6.00;;;3.47;;
14001;SDS011;7076;51.280;12.584;2023-03-01T21:29:30;4.50;;;3.10;;
14001;SDS011;7076;51.280;12.584;2023-03-01T21:34:33;5.10;;;2.87;;
14001;SDS011;7076;51.280;12.584;2023-03-01T21:39:38;7.70;;;4.03;;
14001;SDS011;7076;51.280;12.584;2023-03-01T21:44:41;6.50;;;3.50;;
14001;SDS011;7076;51.280;12.584;2023-03-01T21:49:43;5.93;;;3.83;;
14001;SDS011;7076;51.280;12.584;2023-03-01T21:54:50;4.60;;;2.73;;
14001;SDS011;7076;51.280;12.584;2023-03-01T21:59:53;4.67;;;2.60;;
14001;SDS011;7076;51.280;12.584;2023-03-01T22:04:56;6.80;;;3.73;;
14001;SDS011;7076;51.280;12.584;2023-03-01T22:10:00;5.37;;;3.23;;
14001;SDS011;7076;51.280;12.584;2023-03-01T22:15:03;7.33;;;4.10;;
14001;SDS011;7076;51.280;12.584;2023-03-01T22:20:08;7.77;;;3.70;;
14001;SDS011;7076;51.280;12.584;2023-03-01T22:25:14;4.40;;;2.77;;
14001;SDS011;7076;51.280;12.584;2023-03-01T22:30:17;4.37;;;3.07;;
14001;SDS011;7076;51.280;12.584;2023-03-01T22:35:20;5.50;;;3.00;;
14001;SDS011;7076;51.280;12.584;2023-03-01T22:40:25;6.37;;;3.63;;
14001;SDS011;7076;51.280;12.584;2023-03-01T22:45:28;4.37;;;2.50;;
14001;SDS011;7076;51.280;12.584;2023-03-01T22:50:32;5.50;;;3.30;;
14001;SDS011;7076;51.280;12.584;2023-03-01T22:55:36;6.90;;;3.13;;
14001;SDS011;7076;51.280;12.584;2023-03-01T23:00:39;6.00;;;2.90;;
14001;SDS011;7076;51.280;12.584;2023-03-01T23:05:42;6.23;;;4.20;;
14001;SDS011;7076;51.280;12.584;2023-03-01T23:10:46;5.93;;;3.57;;
14001;SDS011;7076;51.280;12.584;2023-03-01T23:15:51;5.23;;;3.20;;
14001;SDS011;7076;51.280;12.584;2023-03-01T23:20:54;4.67;;;2.90;;
14001;SDS011;7076;51.280;12.584;2023-03-01T23:25:58;5.27;;;3.20;;
14001;SDS011;7076;51.280;12.584;2023-03-01T23:31:02;6.07;;;3.97;;
14001;SDS011;7076;51.280;12.584;2023-03-01T23:36:06;6.77;;;3.97;;
14001;SDS011;7076;51.280;12.584;2023-03-01T23:41:19;4.27;;;3.03;;
14001;SDS011;7076;51.280;12.584;2023-03-01T23:46:23;7.00;;;4.23;;
14001;SDS011;7076;51.280;12.584;2023-03-01T23:51:26;8.70;;;5.00;;
14001;SDS011;7076;51.280;12.584;2023-03-01T23:56:31;7.40;;;5.00;;
